St. Margarethen - Festspielgelnde
Wetterdaten: aktuell Freitag, 10.07.2020 11:04
Datum Zeit Temp. A. Feuchte A. Regen Wind Richtung Richtung Taupunkt Windchill Windben
10.07.2020 11:04 28,6 C 53 % 0,0 l/m 13,0 km/h (3 Bft) O 85 18,1 C 27,8 C 19,3 km/h (3 Bft)
10.07.2020 10:04 25,6 C 64 % 0,0 l/m 0,5 km/h (0 Bft) O 84 18,3 C 25,6 C 3,2 km/h (1 Bft)
10.07.2020 09:04 23,6 C 68 % 0,0 l/m 0,0 km/h (0 Bft) NO 46 17,3 C 23,6 C 0,0 km/h (0 Bft)
10.07.2020 08:04 21,7 C 75 % 0,0 l/m 0,0 km/h (0 Bft) W-SW 243 17,1 C 21,7 C 0,0 km/h (0 Bft)
10.07.2020 07:04 20,3 C 77 % 0,0 l/m 0,0 km/h (0 Bft) O-NO 68 16,1 C 20,3 C 0,0 km/h (0 Bft)
10.07.2020 06:04 18,7 C 82 % 0,0 l/m 0,0 km/h (0 Bft) N-NO 22 15,6 C 18,7 C 0,0 km/h (0 Bft)
10.07.2020 05:04 17,9 C 81 % 0,0 l/m 0,0 km/h (0 Bft) N-NO 32 14,6 C 17,9 C 0,0 km/h (0 Bft)
10.07.2020 04:03 18,7 C 77 % 0,0 l/m 0,0 km/h (0 Bft) NO 43 14,6 C 18,7 C 0,0 km/h (0 Bft)
10.07.2020 03:00 20,3 C 69 % 0,0 l/m 0,0 km/h (0 Bft) O-SO 103 14,4 C 20,3 C 0,0 km/h (0 Bft)
10.07.2020 02:00 22,8 C 59 % 0,0 l/m 1,9 km/h (1 Bft) S-SW 204 14,4 C 22,8 C 3,2 km/h (1 Bft)
10.07.2020 00:59 23,2 C 58 % 0,0 l/m 4,2 km/h (1 Bft) SW 214 14,5 C 23,2 C 8,0 km/h (2 Bft)
09.07.2020 23:56 23,3 C 58 % 0,0 l/m 3,2 km/h (1 Bft) S-SW 205 14,6 C 23,3 C 3,2 km/h (1 Bft)
09.07.2020 22:54 23,3 C 60 % 0,0 l/m 5,1 km/h (1 Bft) S-SO 154 15,1 C 23,3 C 8,0 km/h (2 Bft)
09.07.2020 21:53 24,1 C 60 % 0,0 l/m 6,4 km/h (2 Bft) S-SO 157 15,8 C 24,1 C 9,7 km/h (2 Bft)
09.07.2020 20:53 25,2 C 54 % 0,0 l/m 3,2 km/h (1 Bft) SO 135 15,2 C 25,2 C 6,4 km/h (2 Bft)
09.07.2020 19:53 27,7 C 48 % 0,0 l/m 11,3 km/h (2 Bft) S-SO 157 15,7 C 27,0 C 16,1 km/h (3 Bft)
09.07.2020 18:53 28,7 C 45 % 0,0 l/m 14,5 km/h (3 Bft) S-SO 157 15,6 C 27,8 C 19,3 km/h (3 Bft)
09.07.2020 17:53 28,2 C 45 % 0,0 l/m 6,4 km/h (2 Bft) SO 135 15,1 C 28,2 C 14,5 km/h (3 Bft)
09.07.2020 16:53 28,7 C 45 % 0,0 l/m 9,2 km/h (2 Bft) S-SO 165 15,6 C 28,3 C 12,9 km/h (3 Bft)
09.07.2020 15:53 29,3 C 44 % 0,0 l/m 9,4 km/h (2 Bft) SO 127 15,8 C 29,0 C 16,1 km/h (3 Bft)
09.07.2020 14:53 28,5 C 45 % 0,0 l/m 9,1 km/h (2 Bft) O-NO 70 15,4 C 28,1 C 17,7 km/h (3 Bft)
09.07.2020 13:52 27,2 C 49 % 0,0 l/m 13,9 km/h (3 Bft) O-NO 61 15,5 C 26,1 C 19,3 km/h (3 Bft)
09.07.2020 12:52 26,1 C 53 % 0,0 l/m 9,6 km/h (2 Bft) O 94 15,8 C 25,4 C 16,1 km/h (3 Bft)
09.07.2020 12:00 25,7 C 55 % 0,0 l/m 12,1 km/h (2 Bft) O-SO 113 16,0 C 24,6 C 19,3 km/h (3 Bft)
_ Min-Zeit 05:21 15:49 - 17:25 - - 02:40 05:19 23:23
Minimum _ 17,3 C 42 % - 0,0 km/h (0 Bft) - - 14,0 C 17,4 C 0,0 km/h (0 Bft)
_ Max-Zeit 15:48 05:22 12:00 15:05 - - 10:16 15:46 13:49
Maximum _ 29,8 C 85 % 0,0 l/m 19,2 km/h
O-NO (3 Bft)
- - 18,7 C 29,6 C 27,4 km/h
O (4 Bft)
Durchschnitt _ 24,4 C 59 % #0,0 l/m 5,5 km/h (1 Bft) S-SO - 15,6 C 24,2 C 8,8 km/h (2 Bft)